Werte bis 5 Uhr SommerzeitDiagramme Frankenhausen: Tagesdaten Monatsdaten WindroseCSV-Datei: Frankenhausen20.csv

Wetterdaten 2020 Station: Frankenhausen
Temperaturen in °C relative Nieder- Global- Wind Wind Wind- Sonnen-
Datum Boden Boden Luft Luft Luft Luft Feuchte schlag strahlung max richtung schein
20 cm 5 cm 20 cm 2 m 2 m max 2 m min % mm W/m2*d m/s m/s ° h

07.08.2020 22,0 21,3 12,2 14,4 15,6 13,4 88 0,0 0 0,9 1,4 182 ---
06.08.2020 21,1 23,2 21,5 22,4 31,4 14,0 51 0,0 7251 1,6 6,1 142 11,2
05.08.2020 19,8 21,2 18,5 19,2 28,2 10,3 63 0,0 7221 1,9 7,4 161 11,0
04.08.2020 18,8 19,4 15,4 16,1 23,3 9,2 75 0,0 6768 1,8 8,2 295 10,6
03.08.2020 19,2 19,5 16,8 17,4 22,1 12,4 75 0,0 5923 1,6 7,2 311 11,0
02.08.2020 20,4 20,9 19,3 19,7 24,2 16,6 89 11,9 3391 1,9 8,0 296 7,4
01.08.2020 21,5 23,1 21,8 22,9 32,0 14,9 67 0,0 4654 1,8 10,3 171 9,9
31.07.2020 21,1 23,4 20,6 21,6 32,1 9,8 59 0,0 7519 1,2 6,6 120 11,5
30.07.2020 19,9 21,6 16,8 17,7 26,5 7,8 66 0,0 7570 1,3 7,2 300 11,5
29.07.2020 19,6 20,5 16,8 17,2 23,0 9,4 64 0,0 6628 2,7 9,6 249 11,6
28.07.2020 19,5 20,9 20,3 20,9 26,3 14,3 62 0,0 5957 3,7 12,0 243 10,3
27.07.2020 18,7 18,7 18,0 18,6 24,5 12,9 84 0,7 2989 1,6 5,8 126 8,5
26.07.2020 20,2 21,5 19,3 19,7 24,4 16,3 74 8,4 5865 2,9 11,5 212 8,7
25.07.2020 20,4 21,8 19,7 20,1 26,0 13,7 73 0,0 3810 1,5 6,8 197 8,9
24.07.2020 20,2 21,8 19,0 19,4 25,9 11,4 65 0,0 5883 2,4 9,0 245 10,1
23.07.2020 20,1 22,0 16,8 17,6 25,4 8,9 66 0,0 7954 1,2 8,6 287 11,8
22.07.2020 19,2 20,3 14,7 15,3 22,9 6,3 71 0,0 6356 1,4 7,6 324 11,4
21.07.2020 19,2 20,3 14,2 15,3 21,7 8,6 71 0,0 7303 1,8 8,7 294 11,8
20.07.2020 20,0 21,0 16,7 17,4 21,2 10,5 84 0,0 4991 2,5 8,2 336 10,8
19.07.2020 20,1 22,1 20,0 20,5 28,0 13,2 73 0,0 5493 1,5 6,2 --- 9,8
18.07.2020 19,2 21,1 18,0 18,6 26,5 10,0 74 0,0 6780 1,0 4,2 --- 11,5
17.07.2020 17,5 18,4 15,8 15,9 23,3 9,1 82 0,0 5920 1,0 6,0 --- 10,3
16.07.2020 17,1 17,0 14,4 14,5 17,7 11,8 96 1,4 2367 1,0 4,5 --- 7,6
15.07.2020 18,3 18,2 15,0 15,2 20,3 13,4 93 5,5 2873 1,3 7,5 --- 7,3
14.07.2020 19,7 21,0 16,8 17,2 26,8 9,2 76 3,0 4868 1,8 9,4 --- 10,7
13.07.2020 19,2 21,1 16,1 17,0 26,0 6,4 68 0,0 8189 1,0 4,9 --- 12,0
12.07.2020 18,1 19,1 14,3 15,0 21,8 7,8 74 0,1 7131 1,3 13,2 --- 11,8
11.07.2020 17,4 17,8 13,6 14,1 20,2 7,0 76 0,0 6547 1,6 6,4 --- 11,5
10.07.2020 18,0 18,3 16,4 16,7 20,4 11,6 92 0,2 3027 2,7 11,4 --- 9,6
09.07.2020 17,7 18,5 17,8 17,9 23,2 14,2 92 3,4 2998 2,5 9,6 --- 8,4
08.07.2020 17,8 17,7 14,5 14,3 16,6 12,0 95 4,3 2153 1,6 5,6 --- 7,2
07.07.2020 18,0 18,5 14,2 14,3 20,7 8,2 78 0,1 5230 1,8 11,1 --- 8,7
06.07.2020 19,1 19,0 14,6 14,9 19,6 10,1 75 1,8 4882 4,0 18,0 --- 10,6
05.07.2020 20,5 22,0 20,9 21,3 26,5 18,1 78 0,6 3736 4,8 14,8 --- 7,5
04.07.2020 19,9 21,0 18,7 19,0 23,5 13,1 70 0,0 4704 3,8 13,0 --- 10,6
03.07.2020 19,9 21,2 16,9 17,1 22,1 12,2 82 3,4 6393 2,0 8,1 --- 10,8
02.07.2020 19,7 21,0 18,0 18,0 22,8 13,9 84 0,0 5709 2,2 9,0 --- 10,6
01.07.2020 19,8 20,4 18,5 18,9 23,6 16,1 84 0,0 2642 2,7 10,0 --- 7,1
30.06.2020 20,2 21,5 16,9 17,1 22,2 9,8 60 0,0 6937 4,0 11,8 --- 10,8
29.06.2020 20,3 21,5 17,3 17,3 22,1 13,0 73 0,0 6642 3,2 12,0 --- 11,3
28.06.2020 21,5 22,6 19,5 20,0 22,9 15,1 72 0,0 3495 3,2 10,0 --- 9,4
27.06.2020 21,9 24,1 21,7 22,2 27,8 16,4 75 0,0 6296 2,6 10,3 --- 11,2
26.06.2020 21,4 23,7 20,6 21,6 27,7 12,3 67 0,2 8031 2,0 10,3 --- 11,9
25.06.2020 20,9 22,6 19,2 20,2 25,4 12,4 77 0,0 6562 1,9 8,5 --- 12,0
24.06.2020 20,6 22,6 18,4 19,2 25,2 10,8 71 0,0 8239 1,6 7,2 --- 12,4
23.06.2020 19,2 21,0 17,9 18,9 25,9 10,1 72 0,0 8479 1,1 5,0 --- 12,2
22.06.2020 18,9 19,4 17,3 18,1 23,1 12,9 84 0,0 4573 1,8 7,7 --- 10,0
21.06.2020 18,6 19,9 17,9 18,4 25,5 10,0 77 0,0 7725 1,0 7,4 --- 12,2
20.06.2020 18,6 19,3 17,1 17,6 22,0 12,6 82 0,0 6175 2,4 8,0 --- 12,1
19.06.2020 18,2 19,5 17,9 18,0 23,7 12,9 84 0,1 7022 2,0 7,1 --- 11,4
18.06.2020 18,1 18,5 16,2 16,4 18,4 14,3 99 11,5 1895 1,0 5,0 --- 4,7
17.06.2020 18,5 19,8 18,0 18,2 25,7 12,1 93 4,6 5540 1,2 10,0 --- 11,0
16.06.2020 18,0 19,5 17,3 17,5 21,7 14,0 92 0,0 5658 1,5 6,6 --- 11,1
15.06.2020 17,5 17,9 15,9 16,1 18,2 14,3 99 25,7 2141 2,2 7,6 --- 8,8
14.06.2020 18,5 19,8 18,7 18,9 22,7 16,4 98 2,3 2815 1,4 6,2 --- 7,6
13.06.2020 18,6 20,9 19,6 20,5 29,0 14,3 87 6,0 6522 1,7 10,4 --- 9,9
12.06.2020 16,9 18,8 18,4 18,9 26,4 10,1 80 0,0 7791 2,1 9,5 --- 11,8
11.06.2020 16,0 17,1 15,4 15,6 19,4 12,1 93 2,0 3609 0,9 3,9 --- 8,0
10.06.2020 15,3 16,2 14,8 15,0 19,0 11,6 91 0,9 3351 1,6 6,6 --- 9,0
09.06.2020 14,7 15,2 13,0 13,4 18,6 6,6 92 1,8 3705 1,1 6,4 --- 9,9
08.06.2020 15,0 15,5 12,9 13,2 19,0 7,8 88 1,3 3997 1,2 6,6 --- 7,5
07.06.2020 14,7 15,4 13,7 13,7 18,2 9,2 70 0,0 6078 3,2 12,9 --- 12,2
06.06.2020 13,9 14,0 11,6 11,5 16,8 7,0 82 5,2 5622 3,5 12,1 --- 10,9
05.06.2020 14,7 14,4 11,1 10,8 14,5 8,4 87 4,5 4215 4,1 13,8 --- 8,9
04.06.2020 16,2 16,1 13,3 13,7 16,1 11,5 98 9,1 1366 1,5 8,1 --- 3,1
03.06.2020 18,0 19,8 18,0 18,6 25,8 12,9 66 1,2 5661 1,6 14,3 --- 9,7
02.06.2020 17,5 19,8 17,4 18,2 25,9 8,4 61 0,0 8024 1,3 9,2 --- 11,6
01.06.2020 16,5 18,5 15,2 16,1 23,8 5,9 65 0,0 8536 1,7 8,1 --- 12,1
31.05.2020 15,7 16,9 12,7 13,4 20,1 5,4 67 0,0 7136 2,0 8,6 --- 11,6
30.05.2020 15,8 16,8 13,0 13,6 19,4 5,4 60 0,0 6725 2,4 10,6 --- 11,1
29.05.2020 17,8 19,5 12,0 13,9 19,7 6,5 59 0,0 1846 1,8 7,2 --- 3,6
28.05.2020 16,1 17,7 13,3 13,8 18,7 8,4 64 0,0 8348 3,2 9,0 --- 11,3
27.05.2020 15,0 16,6 14,7 15,0 22,7 5,8 72 0,0 6811 1,7 7,4 --- 12,0
26.05.2020 13,6 14,5 11,7 12,2 20,3 3,7 80 0,0 6358 1,0 4,3 --- 11,7
25.05.2020 13,4 14,0 13,0 13,5 18,1 8,2 82 0,6 5762 3,8 11,5 --- 10,2
24.05.2020 13,2 12,8 11,2 11,6 16,0 7,5 88 5,0 2946 3,2 10,8 --- 7,1
23.05.2020 14,9 15,3 13,8 14,1 16,7 9,9 82 3,2 3557 2,6 9,4 --- 9,2
22.05.2020 15,8 17,1 17,3 17,9 22,8 11,4 75 6,0 3154 2,0 8,5 --- 9,5
21.05.2020 15,3 17,6 15,2 16,0 24,4 5,6 67 0,0 8042 1,3 6,4 --- 11,8
20.05.2020 15,2 16,5 14,3 14,7 17,9 9,1 89 0,0 3010 1,5 5,8 --- 9,3
19.05.2020 15,2 17,1 15,1 15,8 21,9 7,1 70 0,0 6261 2,0 8,8 --- 10,8
18.05.2020 14,4 16,4 14,7 15,0 23,7 6,2 64 0,0 7387 2,6 11,4 --- 11,3
17.05.2020 13,7 15,5 11,3 12,0 17,9 5,9 65 0,0 7708 2,2 7,9 --- 11,0
16.05.2020 12,7 14,1 10,2 10,5 17,5 2,2 66 0,0 6549 2,0 7,5 --- 11,8
15.05.2020 11,6 12,4 7,5 8,1 14,5 0,1 65 0,0 7162 2,4 9,3 --- 11,3
14.05.2020 11,6 12,3 7,8 8,1 13,6 3,8 72 0,0 5319 2,5 7,9 --- 10,0
13.05.2020 10,7 11,3 7,6 7,7 13,2 -0,2 71 0,0 4925 1,6 8,5 --- 9,7
12.05.2020 9,4 8,5 5,1 5,5 11,0 -0,9 72 0,0 4261 1,9 6,9 --- 10,8
11.05.2020 11,2 9,9 5,1 5,8 10,2 1,9 85 2,1 1968 4,4 13,3 --- 4,9
10.05.2020 13,2 13,8 12,2 12,8 19,4 6,5 89 1,0 2309 1,2 8,2 --- 6,7
09.05.2020 14,1 15,8 14,1 15,1 21,1 8,4 61 0,0 5361 1,9 8,1 --- 11,0
08.05.2020 13,4 15,1 12,3 13,2 21,4 4,2 61 0,0 6758 1,4 5,7 --- 10,0
07.05.2020 12,3 13,7 10,1 11,3 19,8 1,4 59 0,0 7814 1,4 7,0 --- 11,4
06.05.2020 11,0 11,7 7,8 8,9 16,2 -0,6 68 0,0 7880 1,5 8,8 --- 11,4
05.05.2020 10,4 10,3 6,5 7,4 13,2 0,7 70 0,0 7804 2,3 9,1 --- 11,4
04.05.2020 10,9 10,8 8,8 9,6 13,2 4,2 90 2,2 2695 1,9 8,6 --- 6,6
03.05.2020 10,8 11,2 10,0 10,5 15,1 6,6 86 0,0 3224 1,7 6,5 --- 7,5
02.05.2020 10,8 10,6 8,3 8,6 11,6 6,3 93 3,9 3060 2,9 11,1 --- 7,9
01.05.2020 11,7 12,0 9,9 9,9 14,1 6,9 89 2,2 4326 3,4 11,4 --- 8,5
30.04.2020 12,4 13,3 12,3 12,4 16,6 8,4 83 8,1 4089 4,4 12,5 --- 8,3
29.04.2020 12,3 13,5 12,9 13,4 18,0 10,3 80 0,1 3615 2,7 10,6 --- 9,0
28.04.2020 12,1 12,6 12,1 12,7 16,4 7,2 78 0,1 2687 2,4 8,7 --- 8,6
27.04.2020 12,3 13,6 11,2 12,4 21,6 2,3 64 0,0 6150 1,9 10,1 --- 9,3
26.04.2020 11,7 12,9 9,1 10,3 19,5 -0,2 67 0,0 7027 1,1 6,0 --- 10,8
25.04.2020 11,8 12,6 8,6 9,3 15,2 3,9 68 0,0 5696 2,8 10,9 --- 9,8
24.04.2020 12,0 13,2 12,0 12,9 19,7 5,6 59 0,0 6272 3,2 10,9 --- 10,4
23.04.2020 11,7 13,1 11,5 13,3 21,4 4,1 49 0,0 7065 2,0 10,8 --- 10,7
22.04.2020 11,2 12,3 11,8 13,3 19,0 4,9 40 0,0 7169 3,8 12,9 --- 10,7
21.04.2020 10,5 11,1 10,9 12,0 17,0 4,9 42 0,0 7066 4,8 16,5 --- 10,7
20.04.2020 10,3 10,3 9,3 10,3 15,5 0,9 42 0,0 7077 4,3 14,4 --- 10,7
19.04.2020 12,0 12,9 11,0 11,5 15,5 7,3 65 4,1 6682 3,1 11,1 --- 10,0
18.04.2020 11,8 13,3 12,2 13,0 22,7 4,2 79 3,6 4894 1,4 8,9 --- 8,1
17.04.2020 11,4 13,1 10,8 12,4 20,4 4,2 67 0,0 6322 1,5 5,7 --- 10,3
16.04.2020 10,3 11,9 11,7 13,1 22,2 4,4 54 0,0 6243 2,0 5,8 --- 10,2
15.04.2020 8,7 9,3 6,5 7,7 17,4 -0,6 65 0,0 6108 1,5 5,5 --- 9,9
14.04.2020 8,5 8,1 4,4 4,9 9,4 0,3 63 0,1 3759 3,2 9,6 --- 9,2
13.04.2020 10,0 9,6 6,6 7,3 11,6 3,1 61 0,0 3835 4,9 13,3 --- 7,8
12.04.2020 10,8 12,0 12,0 13,6 22,0 5,8 49 0,0 5422 2,0 10,5 --- 8,7
11.04.2020 10,0 10,7 8,7 10,2 20,5 -0,3 53 0,0 6261 1,4 5,0 --- 10,2
10.04.2020 10,5 11,3 8,4 10,0 17,2 2,9 67 0,0 5871 1,9 10,1 --- 9,5
09.04.2020 10,5 11,6 10,7 12,3 19,7 4,4 66 0,0 5683 2,0 7,2 --- 9,4
08.04.2020 10,4 12,0 12,3 14,5 23,3 4,4 60 0,0 5856 1,2 7,3 --- 9,8
07.04.2020 9,7 11,3 11,7 13,3 20,5 5,0 68 0,0 5060 1,5 6,1 --- 8,8
06.04.2020 8,5 9,7 11,7 13,8 22,2 4,2 44 0,0 6026 3,3 10,3 --- 9,9
05.04.2020 7,5 8,3 9,1 10,6 18,1 2,9 50 0,0 5943 3,1 10,6 --- 9,8
04.04.2020 6,8 7,6 6,5 7,5 14,0 0,4 63 0,0 5951 1,5 6,3 --- 9,8
03.04.2020 6,0 6,1 6,3 6,7 8,5 4,9 80 0,0 1410 2,5 8,0 --- 4,0
02.04.2020 5,3 5,1 3,6 4,2 11,0 -3,5 72 0,0 4926 2,7 9,8 --- 9,2
01.04.2020 4,9 4,6 1,9 2,8 10,0 -3,5 61 0,0 5726 1,9 10,5 --- 9,7
31.03.2020 4,9 4,7 1,9 2,7 7,6 -2,4 71 0,0 5050 1,7 7,3 --- 9,4
30.03.2020 4,2 3,1 -0,1 0,6 5,4 -6,2 77 0,0 3512 1,7 10,6 --- 7,8
29.03.2020 5,6 4,8 2,4 2,9 5,7 -1,6 81 0,2 1801 4,7 12,1 --- 4,9
28.03.2020 5,9 6,1 6,6 7,8 14,1 1,5 63 0,0 5279 3,2 9,7 --- 9,2
27.03.2020 4,7 4,9 6,9 8,6 16,8 -0,8 53 0,0 4924 2,7 10,4 --- 9,0
26.03.2020 3,7 2,9 3,6 4,6 9,5 -1,4 46 0,0 5148 3,5 13,2 --- 9,2
25.03.2020 3,6 2,5 1,9 3,3 10,0 -4,5 41 0,0 5408 3,0 11,9 --- 9,3
24.03.2020 3,7 2,5 1,5 2,6 8,2 -3,1 40 0,0 5366 2,7 8,7 --- 9,3
23.03.2020 4,0 2,5 1,1 1,9 6,5 -2,4 40 0,0 5310 3,5 10,6 --- 9,2
22.03.2020 4,9 3,4 1,5 2,2 5,8 -1,3 54 0,0 5313 4,2 12,0 --- 9,2
21.03.2020 6,4 5,4 3,8 4,2 6,4 1,7 72 0,0 3157 4,5 14,7 --- 7,6
20.03.2020 8,1 7,9 6,6 7,2 10,0 4,4 96 0,3 697 2,5 9,5 --- 1,0
19.03.2020 8,1 8,9 9,7 10,6 16,6 3,4 80 0,0 3310 1,4 4,6 --- 7,3
18.03.2020 7,4 7,7 8,6 9,9 17,4 3,0 75 0,0 4670 2,9 8,4 --- 8,8
17.03.2020 7,5 8,2 8,6 9,9 15,9 5,5 77 0,0 3834 1,4 7,7 --- 7,4
16.03.2020 6,3 6,7 8,3 9,6 18,2 2,8 69 0,5 4025 1,7 5,5 --- 8,4
15.03.2020 5,8 5,6 7,1 8,3 13,2 3,7 64 0,0 3994 4,0 14,5 --- 8,5
14.03.2020 5,7 5,3 4,4 5,2 9,6 -0,1 83 0,0 3343 1,9 5,8 --- 7,8
13.03.2020 6,1 5,6 5,4 6,0 9,7 2,8 78 0,0 3318 5,9 17,6 --- 6,2
12.03.2020 7,6 7,9 9,1 10,1 12,9 5,2 68 0,0 3630 7,1 19,7 --- 7,3
11.03.2020 7,0 8,0 9,3 10,0 12,7 7,1 98 0,0 1005 3,3 14,1 --- 2,7
10.03.2020 5,5 5,5 6,8 7,4 13,0 4,0 95 0,0 904 4,9 14,1 --- 2,5
09.03.2020 5,9 6,3 6,5 7,3 10,0 4,4 86 0,0 2594 2,9 11,0 --- 6,7
08.03.2020 4,7 4,7 6,3 6,9 10,4 2,7 81 0,0 1988 3,8 12,4 --- 6,2
07.03.2020 4,6 4,2 3,5 4,3 7,9 2,7 89 0,0 1362 3,8 9,9 --- 3,9
06.03.2020 4,9 4,7 4,1 4,5 6,7 2,7 99 0,0 702 4,0 10,7 --- 1,4
05.03.2020 4,1 3,8 4,1 4,6 8,1 1,5 91 0,0 1362 3,1 9,6 --- 4,6
04.03.2020 4,1 3,0 2,0 2,9 8,8 -0,2 95 0,0 1786 2,3 7,0 --- 4,3
03.03.2020 5,5 5,1 3,7 4,6 8,2 0,4 88 0,0 2067 2,7 11,1 --- 6,4
02.03.2020 5,2 5,3 5,3 6,0 10,3 2,3 86 0,0 2831 2,8 8,6 --- 6,4
01.03.2020 5,0 4,8 5,7 6,7 10,3 4,6 73 10,8 2518 4,9 16,8 --- 6,2
29.02.2020 4,6 4,9 6,4 7,1 12,9 1,4 87 4,8 2284 5,2 20,5 --- 5,8
28.02.2020 3,8 3,1 2,5 3,0 6,1 0,5 88 0,0 2018 4,1 13,5 --- 6,0
27.02.2020 4,0 3,1 1,9 2,4 4,2 0,6 91 0,0 1248 2,9 8,8 --- 4,3
26.02.2020 4,8 3,8 2,2 2,6 4,1 1,3 96 0,0 776 4,0 10,7 --- 1,5
25.02.2020 5,9 6,1 7,0 8,0 10,0 2,7 75 3,4 2535 4,8 14,9 --- 5,5
24.02.2020 5,2 4,7 4,8 5,5 9,5 3,1 90 0,0 760 4,5 12,6 --- 1,3
23.02.2020 5,8 6,4 7,8 8,6 12,7 4,9 92 28,4 521 6,6 27,1 --- ---
22.02.2020 4,7 4,5 6,3 7,3 10,7 3,5 76 15,0 1166 5,4 17,5 --- 3,4
21.02.2020 4,7 4,5 4,8 5,5 7,8 3,0 77 0,0 1750 5,7 16,1 --- 5,1
20.02.2020 4,3 4,0 5,0 5,5 9,2 2,3 90 6,3 1187 4,2 15,5 --- 3,9
19.02.2020 4,6 3,9 3,7 4,6 6,6 1,8 84 0,0 1264 4,7 13,5 --- 3,9
18.02.2020 5,2 4,9 5,1 5,9 8,1 4,7 85 1,3 1948 5,4 12,7 --- 5,2
17.02.2020 5,9 6,0 6,9 8,0 9,9 5,1 78 0,0 1361 5,6 14,1 --- 4,9
16.02.2020 5,4 6,2 10,7 12,0 15,2 9,0 67 0,0 1243 7,5 20,8 --- 4,0
15.02.2020 4,2 4,2 5,9 6,9 10,3 3,5 86 0,0 2165 3,9 12,6 --- 6,1
14.02.2020 3,6 3,6 4,6 5,3 6,8 3,4 93 2,3 812 2,6 7,3 --- 2,3
13.02.2020 2,7 1,7 1,7 2,6 4,9 0,4 96 0,0 399 3,9 14,3 --- ---
12.02.2020 3,2 2,2 2,7 3,5 6,3 1,3 76 0,5 2063 6,2 16,7 --- 4,8
11.02.2020 4,1 3,1 3,0 3,8 6,2 1,2 76 9,1 1548 8,0 21,8 --- 4,5
10.02.2020 5,2 5,4 6,2 7,1 11,9 4,0 83 0,0 1453 9,1 31,9 --- 4,0
09.02.2020 3,9 4,1 7,2 8,2 11,7 4,5 79 7,1 1110 7,1 25,1 --- 3,1
08.02.2020 3,1 2,0 2,2 3,0 6,1 -0,5 87 6,4 1236 3,5 10,0 --- 3,8
07.02.2020 3,8 3,3 2,9 3,7 7,0 0,7 85 0,0 1786 2,0 8,3 --- 4,9
06.02.2020 3,3 2,2 2,1 2,9 5,1 -0,1 93 1,4 388 1,6 4,7 --- ---
05.02.2020 4,2 3,1 1,5 2,3 5,4 -1,2 89 0,0 2216 3,3 11,6 --- 6,1
04.02.2020 5,3 4,6 3,3 3,8 6,3 2,1 97 8,2 820 4,5 12,7 --- 2,1
03.02.2020 6,0 6,4 8,4 9,2 10,7 6,3 84 1,2 1308 4,9 15,3 --- 3,8
02.02.2020 5,8 5,8 7,2 7,9 11,3 5,3 87 4,8 388 4,6 15,6 --- ---
01.02.2020 6,2 7,1 9,4 10,4 11,6 7,1 92 6,6 279 4,8 14,5 --- ---
31.01.2020 5,1 6,3 10,2 11,3 13,3 8,2 85 0,6 1222 4,8 13,9 --- 4,3
30.01.2020 3,1 2,9 4,8 5,8 8,6 1,9 90 0,5 945 4,6 14,3 --- 2,5
29.01.2020 3,0 2,2 2,6 3,5 5,0 2,0 86 0,7 440 4,1 11,0 --- 0,6
28.01.2020 3,7 3,5 3,9 4,7 6,3 2,5 90 1,0 522 4,9 15,2 --- 0,8
27.01.2020 2,5 2,5 4,5 5,1 7,2 2,7 99 1,1 410 3,9 10,0 --- 0,3
26.01.2020 1,7 0,7 0,6 0,7 2,8 -0,7 100 0,0 682 3,3 10,1 --- 0,9
25.01.2020 1,7 0,7 -1,1 -1,0 0,0 -1,8 100 0,0 412 1,9 6,4 --- ---
24.01.2020 1,8 0,7 -1,1 -0,8 0,1 -2,3 100 0,0 615 2,3 7,8 --- 1,5
23.01.2020 1,9 0,7 0,3 0,9 3,1 -1,7 99 0,0 662 1,3 4,6 --- 1,1
22.01.2020 2,1 0,7 -2,1 -1,9 0,6 -5,3 100 6,5 288 1,3 3,8 --- ---
21.01.2020 2,8 1,3 -2,3 -1,7 1,4 -3,6 100 0,0 997 2,0 5,0 --- 3,8
20.01.2020 3,7 2,8 1,2 2,1 6,9 -1,5 99 0,0 783 1,0 4,3 --- 2,6
19.01.2020 3,9 3,0 2,1 2,6 3,8 1,4 100 0,3 414 2,2 6,3 --- 0,2
18.01.2020 4,2 3,3 2,7 3,7 6,6 0,8 92 0,2 924 2,6 9,8 --- 3,1
17.01.2020 4,3 3,8 5,1 6,3 9,1 2,8 93 0,0 1171 2,8 9,2 --- 3,8
16.01.2020 4,9 4,2 4,3 5,9 10,2 0,5 98 0,0 1025 1,9 6,9 --- 3,6
15.01.2020 5,3 5,5 8,8 10,1 12,3 8,6 73 0,0 1388 4,0 11,7 --- 4,7
14.01.2020 4,6 4,6 7,1 8,1 9,8 5,2 81 0,2 591 5,3 13,1 --- 0,8
13.01.2020 4,0 3,7 4,5 5,4 6,9 3,6 97 0,6 855 3,5 11,6 --- 2,5
12.01.2020 3,4 2,2 2,2 3,0 6,1 0,9 94 0,2 607 3,9 10,0 --- 1,3
11.01.2020 4,8 3,9 3,0 3,9 6,0 2,1 90 0,2 984 2,7 7,5 --- 2,6
10.01.2020 6,1 6,5 7,1 7,8 10,1 4,1 97 3,0 525 3,8 11,1 --- 0,7
09.01.2020 5,0 5,8 8,1 8,7 10,6 6,5 100 10,5 116 3,8 10,8 --- ---
08.01.2020 3,6 3,6 4,8 5,3 6,6 4,1 99 1,2 173 3,9 10,9 --- ---
07.01.2020 2,7 1,9 2,2 2,9 5,7 0,1 99 0,1 348 2,6 11,1 --- ---
06.01.2020 3,3 2,8 2,7 3,6 5,0 0,6 90 0,0 342 3,1 12,4 --- ---
05.01.2020 2,9 2,2 2,0 2,6 4,8 0,4 100 0,3 290 1,8 5,4 --- ---
04.01.2020 2,5 2,0 3,8 4,5 5,9 2,6 96 2,8 204 4,6 13,9 --- ---
03.01.2020 1,6 0,3 3,7 4,2 7,8 1,6 100 2,8 289 4,4 13,5 --- 0,1
02.01.2020 1,7 0,3 -1,6 -1,1 1,8 -3,5 100 0,0 730 3,1 9,5 --- 2,2
01.01.2020 2,0 0,7 -1,3 -0,7 1,9 -2,7 100 0,0 924 1,8 6,8 --- 3,6

Mittelwerte (Temperaturen, Strahlung, rel. Feuchte, Wind), Summe (Regen) für 2020
10,9 11,3 9,9 10,6 78 315 3.895 2,8

Landesbetrieb Landwirtschaft Hessen 2009

      Werte bis 5 Uhr SommerzeitCSV-Datei: Frankenhausen20.csvDiagramm: Frankenhausen